Terminal Aerodrome Forecast
Issued by NWS

Home | Current Version | Previous Version | Text Only | Print | Product List | Glossary Off
Versions: 1 2 3 4 5 6 7 8 9 10 11 12 13 14 15 16 17 18 19

195
FTUS43 KBIS 261732
TAFDIK
TAF
KDIK 261732Z 2618/2718 05010KT 4SM BR BKN005 OVC012
      TEMPO 2618/2621 OVC008
     FM262100 06010KT P6SM -RA OVC008
     FM270000 07009KT 3SM -RA BR OVC003
     FM270600 04008KT 2SM -RA OVC003=

USA.gov is the U.S. government's official web portal to all federal, state and local government web resources and services.